createdAt,value
2019-03-09T00:03:11.246Z,51.40
2019-03-09T00:07:16.939Z,50.70
2019-03-09T00:11:22.888Z,50.80
2019-03-09T00:15:29.603Z,51.50
2019-03-09T00:19:35.300Z,52.60
2019-03-09T00:23:52.832Z,53.40
2019-03-09T00:28:00.163Z,52.80
2019-03-09T00:32:07.634Z,53.00
2019-03-09T00:36:13.318Z,52.90
2019-03-09T00:40:19.081Z,53.40
2019-03-09T00:44:24.768Z,53.40
2019-03-09T00:48:30.458Z,52.80
2019-03-09T00:52:36.168Z,52.30
2019-03-09T00:56:42.122Z,51.60
2019-03-09T01:00:47.808Z,52.40
2019-03-09T01:04:54.646Z,53.00
2019-03-09T01:09:00.386Z,53.00
2019-03-09T01:13:07.891Z,52.80
2019-03-09T01:17:13.581Z,53.50
2019-03-09T01:21:19.277Z,54.10
2019-03-09T01:25:26.497Z,54.10
2019-03-09T01:29:32.183Z,54.20
2019-03-09T01:33:37.868Z,55.40
2019-03-09T01:37:43.557Z,55.50
2019-03-09T01:41:49.251Z,54.90
2019-03-09T01:45:54.940Z,55.30
2019-03-09T01:50:00.616Z,55.70
2019-03-09T01:54:06.526Z,56.40
2019-03-09T01:58:13.339Z,56.20
2019-03-09T02:02:19.037Z,56.40
2019-03-09T02:06:24.748Z,56.50
2019-03-09T02:10:32.015Z,57.50
2019-03-09T02:14:37.780Z,56.80
2019-03-09T02:18:43.462Z,57.20
2019-03-09T02:22:49.165Z,57.90
2019-03-09T02:26:54.856Z,57.70
2019-03-09T02:31:00.552Z,57.50
2019-03-09T02:35:13.229Z,58.20
2019-03-09T02:39:26.477Z,58.60
2019-03-09T02:43:32.255Z,58.80
2019-03-09T02:47:38.070Z,60.40
2019-03-09T02:51:43.901Z,61.40
2019-03-09T02:55:49.595Z,62.80
2019-03-09T02:59:55.268Z,61.70
2019-03-09T03:04:00.978Z,61.90
2019-03-09T03:08:06.754Z,62.50
2019-03-09T03:12:12.440Z,63.20
2019-03-09T03:16:18.163Z,63.60
2019-03-09T03:20:23.835Z,63.20
2019-03-09T03:24:29.548Z,63.10
2019-03-09T03:28:35.249Z,63.20
2019-03-09T03:32:40.949Z,62.70
2019-03-09T03:36:46.646Z,62.60
2019-03-09T03:40:52.344Z,63.00
2019-03-09T03:44:58.102Z,62.80
2019-03-09T03:49:04.089Z,62.10
2019-03-09T03:53:09.884Z,62.90
2019-03-09T03:57:15.580Z,61.00
2019-03-09T04:01:21.340Z,60.10
2019-03-09T04:05:27.128Z,59.50
2019-03-09T04:09:33.112Z,59.20
2019-03-09T04:13:38.999Z,59.10
2019-03-09T04:29:16.436Z,58.60
2019-03-09T04:34:16.372Z,59.20
2019-03-09T04:54:36.237Z,60.70
2019-03-09T04:58:59.603Z,60.80
2019-03-09T05:08:21.994Z,62.80
2019-03-09T05:17:18.598Z,64.40
2019-03-09T05:21:24.308Z,64.60
2019-03-09T05:25:30.002Z,64.30
2019-03-09T05:29:35.689Z,65.80
2019-03-09T05:33:59.460Z,68.00
2019-03-09T05:38:17.568Z,71.70
2019-03-09T05:42:23.259Z,73.90
2019-03-09T05:46:28.977Z,75.20
2019-03-09T05:50:34.725Z,76.20
2019-03-09T05:54:40.403Z,76.70
2019-03-09T06:03:21.348Z,76.30
2019-03-09T06:07:27.044Z,78.30
2019-03-09T06:11:33.357Z,78.10
2019-03-09T06:15:39.124Z,78.60
2019-03-09T06:19:44.810Z,79.60
2019-03-09T06:28:19.955Z,78.90
2019-03-09T06:32:36.123Z,78.30
2019-03-09T06:36:49.310Z,78.90
2019-03-09T06:41:02.635Z,79.60
2019-03-09T06:45:04.513Z,78.50
2019-03-09T06:49:10.288Z,79.00
2019-03-09T06:53:15.957Z,78.60
2019-03-09T06:57:21.702Z,78.30
2019-03-09T07:01:27.391Z,77.70
2019-03-09T07:05:33.073Z,76.50
2019-03-09T07:09:39.715Z,76.40
2019-03-09T07:13:52.500Z,76.80
2019-03-09T07:17:55.923Z,76.20
2019-03-09T07:22:01.603Z,75.60
2019-03-09T07:26:07.298Z,75.80
2019-03-09T07:34:52.416Z,74.20
2019-03-09T07:38:58.114Z,73.90
2019-03-09T07:43:04.381Z,71.20
2019-03-09T07:47:10.361Z,71.00
2019-03-09T07:51:16.052Z,69.30
2019-03-09T07:55:23.611Z,65.60
2019-03-09T07:59:29.296Z,64.00
2019-03-09T08:03:34.993Z,66.70
2019-03-09T08:07:40.691Z,65.90
2019-03-09T08:11:46.405Z,65.60
2019-03-09T08:15:52.149Z,66.30
2019-03-09T08:19:57.913Z,66.10
2019-03-09T08:24:03.629Z,67.50
2019-03-09T08:28:09.388Z,66.20
2019-03-09T08:32:15.140Z,64.10
2019-03-09T08:36:20.827Z,62.30
2019-03-09T08:40:26.519Z,63.10
2019-03-09T08:44:32.198Z,64.20
2019-03-09T08:48:37.956Z,61.90
2019-03-09T08:52:43.729Z,60.80
2019-03-09T08:56:49.414Z,63.20
2019-03-09T09:00:55.162Z,62.00
2019-03-09T09:05:00.831Z,62.40
2019-03-09T09:09:07.643Z,62.90
2019-03-09T09:13:13.729Z,63.70
2019-03-09T09:17:19.431Z,64.10
2019-03-09T09:21:25.130Z,64.70
2019-03-09T09:25:30.823Z,63.20
2019-03-09T09:29:39.571Z,63.50
2019-03-09T09:33:43.898Z,63.10
2019-03-09T09:37:49.660Z,63.70
2019-03-09T09:41:55.402Z,63.20
2019-03-09T09:46:01.178Z,64.40
2019-03-09T09:50:11.573Z,64.40
2019-03-09T09:54:17.253Z,64.10
2019-03-09T09:58:22.950Z,62.80
2019-03-09T10:02:28.644Z,63.00
2019-03-09T10:06:34.368Z,63.40
2019-03-09T10:10:40.075Z,63.80
2019-03-09T10:14:45.742Z,63.30
2019-03-09T10:18:51.432Z,62.60
2019-03-09T10:23:04.143Z,61.50
2019-03-09T10:27:04.695Z,63.30
2019-03-09T10:31:10.403Z,62.60
2019-03-09T10:35:16.081Z,61.80
2019-03-09T10:39:21.777Z,61.70
2019-03-09T10:43:27.480Z,61.00
2019-03-09T10:47:33.173Z,60.90
2019-03-09T10:51:38.884Z,61.80
2019-03-09T10:55:44.633Z,59.60
2019-03-09T10:59:50.315Z,60.20
2019-03-09T11:03:56.016Z,61.60
2019-03-09T11:08:01.895Z,62.20
2019-03-09T11:12:07.596Z,62.20
2019-03-09T11:16:14.386Z,61.30
2019-03-09T11:20:21.772Z,61.10
2019-03-09T11:24:27.507Z,61.90
2019-03-09T11:28:33.205Z,62.80
2019-03-09T11:32:38.895Z,62.10
2019-03-09T11:36:44.674Z,62.00
2019-03-09T11:40:57.598Z,61.50
2019-03-09T11:44:57.883Z,59.80
2019-03-09T11:49:03.588Z,60.20
2019-03-09T11:53:09.363Z,59.80
2019-03-09T11:57:16.183Z,59.50
2019-03-09T12:01:21.842Z,59.80
2019-03-09T12:05:27.545Z,60.50
2019-03-09T12:09:33.259Z,60.80
2019-03-09T12:13:39.021Z,60.30
2019-03-09T12:17:44.705Z,60.80
2019-03-09T12:21:50.445Z,60.30
2019-03-09T12:25:56.134Z,60.10
2019-03-09T12:30:03.761Z,60.50
2019-03-09T12:34:09.412Z,61.50
2019-03-09T12:38:15.116Z,61.60
2019-03-09T12:42:20.822Z,61.30
2019-03-09T12:46:26.514Z,61.00
2019-03-09T12:50:32.281Z,59.90
2019-03-09T12:54:38.002Z,60.00
2019-03-09T12:58:46.052Z,61.20
2019-03-09T13:02:51.247Z,61.70
2019-03-09T13:06:57.015Z,62.20
2019-03-09T13:11:02.772Z,61.30
2019-03-09T13:15:10.385Z,59.90
2019-03-09T13:19:17.170Z,59.40
2019-03-09T13:23:22.875Z,59.90
2019-03-09T13:27:28.658Z,60.00
2019-03-09T13:31:34.339Z,61.30
2019-03-09T13:35:40.035Z,60.90
2019-03-09T13:39:45.794Z,60.00
2019-03-09T13:43:51.488Z,59.30
2019-03-09T13:47:57.174Z,59.30
2019-03-09T13:52:02.886Z,59.60
2019-03-09T13:56:08.599Z,59.80
2019-03-09T14:00:18.582Z,60.90
2019-03-09T14:04:25.220Z,60.80
2019-03-09T14:08:30.935Z,60.00
2019-03-09T14:12:36.685Z,61.40
2019-03-09T14:16:42.388Z,62.40
2019-03-09T14:20:48.497Z,64.40
2019-03-09T14:24:54.247Z,67.50
2019-03-09T14:29:00.890Z,69.60
2019-03-09T14:33:06.668Z,71.20
2019-03-09T14:37:12.384Z,69.30
2019-03-09T14:41:18.080Z,71.90
2019-03-09T14:45:24.834Z,72.00
2019-03-09T14:49:30.507Z,71.10
2019-03-09T14:53:36.210Z,72.00
2019-03-09T14:57:42.344Z,70.70
2019-03-09T15:01:48.039Z,70.60
2019-03-09T15:05:53.797Z,69.40
2019-03-09T15:10:01.015Z,68.20
2019-03-09T15:14:06.946Z,68.00
2019-03-09T15:18:12.653Z,67.20
2019-03-09T15:22:18.375Z,67.50
2019-03-09T15:26:24.059Z,65.90
2019-03-09T15:30:29.779Z,67.60
2019-03-09T15:34:35.463Z,68.00
2019-03-09T15:38:41.157Z,68.90
2019-03-09T15:42:46.955Z,69.60
2019-03-09T15:46:52.624Z,70.30
2019-03-09T15:50:58.563Z,70.90
2019-03-09T15:55:05.194Z,71.50
2019-03-09T15:59:11.167Z,72.20
2019-03-09T16:03:16.852Z,72.90
2019-03-09T16:07:22.543Z,73.50
2019-03-09T16:11:28.238Z,73.00
2019-03-09T16:15:33.935Z,73.10
2019-03-09T16:19:39.630Z,73.20
2019-03-09T16:23:45.363Z,72.90
2019-03-09T16:27:51.196Z,72.10
2019-03-09T16:31:58.655Z,71.80
2019-03-09T16:36:04.501Z,71.60
2019-03-09T16:40:22.052Z,71.60
2019-03-09T16:44:27.759Z,71.20
2019-03-09T16:48:33.529Z,71.30
2019-03-09T16:52:39.242Z,70.90
2019-03-09T16:56:45.004Z,70.30
2019-03-09T17:00:50.714Z,70.00
2019-03-09T17:04:56.488Z,69.80
2019-03-09T17:09:02.292Z,69.70
2019-03-09T17:13:18.423Z,69.30
2019-03-09T17:17:28.023Z,69.30
2019-03-09T17:21:33.446Z,69.40
2019-03-09T17:26:18.451Z,69.50
2019-03-09T17:30:24.278Z,69.50
2019-03-09T17:34:29.969Z,69.70
2019-03-09T17:38:35.694Z,69.60
2019-03-09T17:43:17.696Z,69.80
2019-03-09T17:47:23.392Z,69.30
2019-03-09T17:51:30.790Z,68.50
2019-03-09T17:55:36.491Z,67.60
2019-03-09T17:59:42.245Z,67.30
2019-03-09T18:03:47.953Z,67.30
2019-03-09T18:07:53.707Z,67.00
2019-03-09T18:11:59.406Z,67.10
2019-03-09T18:16:05.179Z,66.70
2019-03-09T18:20:12.798Z,67.30
2019-03-09T18:24:18.575Z,67.50
2019-03-09T18:28:24.283Z,67.50
2019-03-09T18:33:03.534Z,66.80
2019-03-09T18:37:09.325Z,67.70
2019-03-09T18:41:14.995Z,66.90
2019-03-09T18:45:24.942Z,67.10
2019-03-09T18:49:30.640Z,67.50
2019-03-09T18:53:36.367Z,67.40
2019-03-09T18:57:42.082Z,67.30
2019-03-09T19:01:47.804Z,66.70
2019-03-09T19:05:53.512Z,66.50
2019-03-09T19:09:59.211Z,65.90
2019-03-09T19:14:05.032Z,64.80
2019-03-09T19:18:10.718Z,64.80
2019-03-09T19:22:16.460Z,63.60
2019-03-09T19:26:22.182Z,63.10
2019-03-09T19:30:27.872Z,62.30
2019-03-09T19:34:33.564Z,62.10
2019-03-09T19:38:39.261Z,62.10
2019-03-09T19:42:45.041Z,61.10
2019-03-09T19:46:50.750Z,61.20
2019-03-09T19:50:56.450Z,59.30
2019-03-09T19:55:02.163Z,59.20
2019-03-09T19:59:07.893Z,59.00
2019-03-09T20:03:13.608Z,59.10
2019-03-09T20:07:19.372Z,58.60
2019-03-09T20:11:25.053Z,58.40
2019-03-09T20:15:30.826Z,58.10
2019-03-09T20:19:36.491Z,58.40
2019-03-09T20:23:42.196Z,57.60
2019-03-09T20:27:47.885Z,58.10
2019-03-09T20:31:53.608Z,58.10
2019-03-09T20:35:59.380Z,58.20
2019-03-09T20:40:11.957Z,58.60
2019-03-09T20:44:17.646Z,58.40
2019-03-09T20:48:23.428Z,58.60
2019-03-09T20:52:29.117Z,58.70
2019-03-09T20:56:34.825Z,58.90
2019-03-09T21:00:40.501Z,59.20
2019-03-09T21:04:46.194Z,59.80
2019-03-09T21:08:51.936Z,60.60
2019-03-09T21:13:07.008Z,61.50
2019-03-09T21:17:12.701Z,62.80
2019-03-09T21:21:18.412Z,63.70
2019-03-09T21:25:24.300Z,64.80
2019-03-09T21:29:30.017Z,65.40
2019-03-09T21:33:35.707Z,66.10
2019-03-09T21:37:41.392Z,66.00
2019-03-09T21:41:47.115Z,66.40
2019-03-09T21:45:52.812Z,66.70
2019-03-09T21:49:58.516Z,66.90
2019-03-09T21:54:04.205Z,67.10
2019-03-09T21:58:09.880Z,67.20
2019-03-09T22:02:16.850Z,67.90
2019-03-09T22:06:22.615Z,68.30
2019-03-09T22:10:29.953Z,68.20
2019-03-09T22:14:35.647Z,68.50
2019-03-09T22:18:41.352Z,68.60
2019-03-09T22:22:48.083Z,68.50
2019-03-09T22:26:53.780Z,68.60
2019-03-09T22:30:59.531Z,69.10
2019-03-09T22:35:05.711Z,69.00
2019-03-09T22:39:11.410Z,69.20
2019-03-09T22:43:17.143Z,69.20
2019-03-09T22:47:22.815Z,69.20
2019-03-09T22:51:28.532Z,69.30
2019-03-09T22:55:34.186Z,69.30
2019-03-09T22:59:39.962Z,69.20
2019-03-09T23:03:45.765Z,69.50
2019-03-09T23:07:51.520Z,69.30
2019-03-09T23:11:57.295Z,69.20
2019-03-09T23:16:03.044Z,68.70
2019-03-09T23:20:12.253Z,68.80
2019-03-09T23:24:17.946Z,69.40
2019-03-09T23:28:23.662Z,69.20
2019-03-09T23:32:29.400Z,69.40
2019-03-09T23:36:35.073Z,69.60
2019-03-09T23:40:40.769Z,69.00
2019-03-09T23:44:46.463Z,69.20
2019-03-09T23:48:52.663Z,69.60
2019-03-09T23:52:58.598Z,70.00
2019-03-09T23:57:04.299Z,70.10
